EPBY

Bydgoszcz Ignacy Jan Paderewski Airport

Bydgoszcz, Poland
METAR EPBY 151900Z VRB02KT 0400 0050W R26/0275U FZFG SCT001 M02/M02 Q0998 R26/29//95
Observed Flight Rules
Dec-15 @ 19:00 UTC (41 minutes ago) Instrument Flight Rules
Wind Visibility Clouds Conditions
Variable at 2 knots 402 meters
  • Scattered at 100' AGL
  • Freezing
  • Fog
Temperatures Readings
Current -2°C / 28°F
Dewpoint -2°C / 28°F
Humidity 100%
Altimeter 29.47" Hg
Pressure 998 hPa
Elevation 71
METAR EPBY 151900Z VRB02KT 0400 0050W R26/0275U FZFG SCT001 M02/M02 Q0998 R26/29//95
Observed Flight Rules
Dec-15 @ 19:00 UTC
(41 minutes ago)
LIFR
Wind Visibility
Variable at 2 knots 402 meters
Clouds
  • Scattered at 100' AGL
Conditions
  • Freezing
  • Fog
Temperature Dewpoint
-2°C / 28°F -2°C / 28°F
Humidity Altimeter Pressure
100% 29.47" Hg 998 hPa